createdAt,value
2022-12-03T00:01:33.511Z,50.62
2022-12-03T00:04:05.427Z,50.57
2022-12-03T00:06:37.571Z,50.83
2022-12-03T00:09:08.911Z,51.17
2022-12-03T00:11:40.480Z,51.26
2022-12-03T00:14:12.431Z,51.71
2022-12-03T00:16:43.756Z,51.72
2022-12-03T00:19:15.042Z,52.30
2022-12-03T00:21:46.548Z,52.08
2022-12-03T00:24:18.188Z,54.36
2022-12-03T00:26:49.479Z,56.80
2022-12-03T00:29:20.781Z,57.28
2022-12-03T00:31:52.096Z,58.20
2022-12-03T00:34:24.113Z,59.06
2022-12-03T00:36:55.443Z,59.67
2022-12-03T00:39:26.747Z,60.14
2022-12-03T00:41:58.197Z,60.84
2022-12-03T00:44:30.164Z,60.90
2022-12-03T00:47:01.730Z,61.83
2022-12-03T00:49:32.850Z,65.50
2022-12-03T00:52:04.265Z,61.81
2022-12-03T00:54:36.056Z,62.18
2022-12-03T00:57:07.643Z,61.48
2022-12-03T00:59:39.014Z,62.20
2022-12-03T01:02:10.503Z,62.08
2022-12-03T01:04:42.535Z,61.76
2022-12-03T01:07:15.110Z,62.31
2022-12-03T01:09:46.421Z,62.92
2022-12-03T01:12:17.685Z,65.92
2022-12-03T01:14:49.357Z,65.99
2022-12-03T01:17:20.595Z,63.16
2022-12-03T01:19:54.021Z,62.94
2022-12-03T01:22:25.523Z,62.74
2022-12-03T01:24:57.230Z,62.77
2022-12-03T01:27:28.804Z,63.28
2022-12-03T01:29:59.861Z,65.03
2022-12-03T01:32:31.138Z,62.79
2022-12-03T01:35:02.370Z,62.75
2022-12-03T01:37:33.673Z,62.50
2022-12-03T01:40:06.288Z,62.63
2022-12-03T01:42:41.629Z,62.40
2022-12-03T01:45:22.836Z,62.32
2022-12-03T01:47:54.131Z,62.92
2022-12-03T01:50:35.924Z,63.26
2022-12-03T01:53:06.993Z,65.10
2022-12-03T01:55:38.833Z,62.81
2022-12-03T01:58:14.583Z,62.62
2022-12-03T02:00:45.884Z,62.64
2022-12-03T02:03:26.477Z,63.11
2022-12-03T02:05:58.391Z,62.89
2022-12-03T02:08:36.873Z,62.63
2022-12-03T02:11:17.201Z,63.04
2022-12-03T02:13:50.299Z,62.57
2022-12-03T02:16:21.758Z,62.97
2022-12-03T02:18:53.215Z,65.72
2022-12-03T02:21:58.015Z,65.89
2022-12-03T02:24:49.036Z,66.40
2022-12-03T02:27:20.693Z,66.24
2022-12-03T02:29:51.811Z,67.46
2022-12-03T02:32:25.112Z,66.76
2022-12-03T02:34:56.710Z,66.66
2022-12-03T02:37:37.799Z,66.77
2022-12-03T02:40:14.542Z,66.43
2022-12-03T02:42:47.153Z,66.87
2022-12-03T02:45:20.776Z,66.46
2022-12-03T02:48:14.949Z,66.82
2022-12-03T02:50:53.658Z,66.67
2022-12-03T02:53:47.113Z,66.77
2022-12-03T02:56:25.617Z,66.75
2022-12-03T02:59:02.024Z,66.73
2022-12-03T03:01:33.967Z,66.70
2022-12-03T03:04:05.995Z,67.28
2022-12-03T03:06:37.330Z,66.61
2022-12-03T03:09:08.710Z,65.80
2022-12-03T03:11:40.146Z,66.14
2022-12-03T03:14:11.544Z,65.55
2022-12-03T03:16:43.702Z,65.64
2022-12-03T03:19:15.247Z,65.45
2022-12-03T03:21:47.066Z,65.45
2022-12-03T03:24:18.575Z,65.25
2022-12-03T03:26:52.160Z,65.22
2022-12-03T03:29:23.687Z,65.06
2022-12-03T03:31:55.332Z,64.98
2022-12-03T03:34:28.855Z,65.47
2022-12-03T03:37:00.566Z,65.23
2022-12-03T03:39:32.235Z,65.46
2022-12-03T03:42:07.233Z,65.36
2022-12-03T03:44:38.906Z,65.24
2022-12-03T03:47:10.452Z,65.63
2022-12-03T03:49:42.311Z,65.73
2022-12-03T03:52:13.536Z,66.37
2022-12-03T03:54:45.404Z,65.91
2022-12-03T03:57:16.869Z,63.25
2022-12-03T03:59:48.892Z,62.04
2022-12-03T04:02:26.562Z,60.77
2022-12-03T04:04:58.139Z,60.30
2022-12-03T04:07:30.152Z,60.50
2022-12-03T04:10:01.005Z,60.67
2022-12-03T04:12:50.330Z,60.25
2022-12-03T04:15:21.679Z,61.29
2022-12-03T04:18:12.246Z,61.66
2022-12-03T04:20:45.582Z,62.08
2022-12-03T04:23:17.558Z,62.13
2022-12-03T04:26:06.768Z,62.13
2022-12-03T04:28:53.188Z,62.31
2022-12-03T04:31:42.209Z,62.46
2022-12-03T04:34:31.534Z,62.24
2022-12-03T04:37:03.397Z,62.60
2022-12-03T04:39:34.867Z,62.55
2022-12-03T04:42:07.357Z,62.68
2022-12-03T04:44:39.657Z,62.29
2022-12-03T04:47:23.973Z,62.67
2022-12-03T04:49:55.267Z,62.27
2022-12-03T04:52:26.806Z,62.43
2022-12-03T04:54:58.688Z,62.23
2022-12-03T04:57:30.039Z,62.24
2022-12-03T05:00:01.291Z,61.64
2022-12-03T05:02:33.948Z,62.01
2022-12-03T05:05:05.350Z,61.85
2022-12-03T05:07:36.877Z,61.91
2022-12-03T05:10:09.624Z,61.51
2022-12-03T05:12:40.386Z,62.19
2022-12-03T05:15:12.115Z,61.49
2022-12-03T05:17:42.801Z,62.60
2022-12-03T05:20:32.882Z,61.79
2022-12-03T05:23:04.245Z,61.66
2022-12-03T05:25:35.763Z,61.28
2022-12-03T05:28:08.875Z,61.51
2022-12-03T05:30:40.528Z,61.39
2022-12-03T05:33:12.385Z,61.30
2022-12-03T05:35:43.715Z,61.35
2022-12-03T05:38:15.238Z,61.18
2022-12-03T05:40:46.948Z,61.37
2022-12-03T05:43:18.201Z,61.19
2022-12-03T05:45:49.832Z,61.14
2022-12-03T05:48:22.387Z,60.65
2022-12-03T05:50:53.739Z,60.90
2022-12-03T05:53:25.194Z,61.62
2022-12-03T05:55:56.456Z,59.91
2022-12-03T05:58:27.855Z,59.07
2022-12-03T06:00:59.113Z,58.42
2022-12-03T06:03:30.575Z,57.78
2022-12-03T06:06:02.094Z,56.44
2022-12-03T06:08:33.336Z,56.08
2022-12-03T06:11:04.648Z,55.76
2022-12-03T06:13:36.376Z,55.15
2022-12-03T06:16:07.988Z,54.45
2022-12-03T06:18:39.649Z,53.48
2022-12-03T06:21:10.936Z,53.07
2022-12-03T06:23:46.033Z,52.98
2022-12-03T06:26:17.518Z,52.47
2022-12-03T06:28:50.794Z,51.54
2022-12-03T06:31:22.094Z,52.00
2022-12-03T06:33:53.386Z,51.59
2022-12-03T06:36:24.758Z,51.07
2022-12-03T06:38:58.683Z,50.67
2022-12-03T06:41:30.099Z,50.81
2022-12-03T06:44:02.021Z,50.65
2022-12-03T06:46:34.091Z,50.02
2022-12-03T06:49:06.097Z,49.54
2022-12-03T06:51:37.224Z,50.08
2022-12-03T06:54:09.135Z,49.26
2022-12-03T06:56:45.099Z,48.56
2022-12-03T06:59:17.447Z,48.40
2022-12-03T07:01:48.759Z,48.24
2022-12-03T07:04:20.146Z,47.84
2022-12-03T07:06:51.579Z,47.83
2022-12-03T07:09:22.881Z,47.43
2022-12-03T07:11:54.181Z,48.34
2022-12-03T07:14:25.642Z,47.72
2022-12-03T07:16:56.825Z,47.44
2022-12-03T07:19:32.531Z,47.20
2022-12-03T07:22:05.292Z,46.95
2022-12-03T07:24:36.668Z,47.08
2022-12-03T07:27:08.419Z,47.04
2022-12-03T07:29:39.864Z,46.68
2022-12-03T07:32:11.514Z,46.04
2022-12-03T07:34:43.184Z,46.00
2022-12-03T07:37:18.626Z,46.05
2022-12-03T07:39:54.027Z,45.67
2022-12-03T07:42:25.322Z,45.80
2022-12-03T07:44:56.714Z,46.10
2022-12-03T07:47:28.291Z,45.42
2022-12-03T07:49:59.787Z,45.42
2022-12-03T07:52:31.121Z,45.44
2022-12-03T07:55:02.531Z,45.66
2022-12-03T07:57:34.025Z,53.03
2022-12-03T08:00:07.063Z,55.57
2022-12-03T08:02:39.564Z,56.92
2022-12-03T08:05:11.157Z,58.60
2022-12-03T08:07:42.632Z,58.84
2022-12-03T08:10:14.353Z,58.95
2022-12-03T08:12:45.839Z,59.23
2022-12-03T08:15:26.168Z,59.31
2022-12-03T08:18:00.616Z,59.07
2022-12-03T08:20:39.701Z,59.43
2022-12-03T08:23:22.611Z,59.42
2022-12-03T08:25:55.251Z,59.44
2022-12-03T08:28:28.889Z,60.08
2022-12-03T08:31:14.240Z,60.22
2022-12-03T08:33:45.980Z,61.15
2022-12-03T08:36:31.038Z,61.37
2022-12-03T08:39:20.742Z,61.80
2022-12-03T08:42:38.361Z,62.61
2022-12-03T08:45:40.991Z,61.72
2022-12-03T08:48:21.988Z,61.40
2022-12-03T08:50:58.327Z,62.51
2022-12-03T08:53:37.625Z,62.33
2022-12-03T08:56:23.527Z,61.51
2022-12-03T08:58:59.748Z,62.84
2022-12-03T09:01:34.129Z,63.22
2022-12-03T09:04:40.720Z,63.06
2022-12-03T09:07:12.715Z,63.63
2022-12-03T09:09:43.593Z,64.60
2022-12-03T09:12:15.581Z,64.21
2022-12-03T09:14:46.994Z,63.92
2022-12-03T09:17:20.533Z,64.05
2022-12-03T09:19:52.553Z,64.23
2022-12-03T09:22:23.411Z,65.40
2022-12-03T09:24:55.676Z,66.05
2022-12-03T09:27:27.532Z,66.55
2022-12-03T09:29:59.287Z,67.46
2022-12-03T09:32:30.835Z,67.17
2022-12-03T09:35:11.168Z,68.18
2022-12-03T09:37:42.731Z,66.90
2022-12-03T09:40:15.231Z,69.71
2022-12-03T09:42:47.350Z,69.96
2022-12-03T09:45:19.664Z,69.70
2022-12-03T09:47:52.908Z,69.85
2022-12-03T09:50:28.586Z,70.30
2022-12-03T09:53:04.374Z,70.10
2022-12-03T09:55:36.215Z,70.17
2022-12-03T09:58:16.571Z,69.99
2022-12-03T10:00:53.868Z,69.62
2022-12-03T10:03:30.150Z,69.53
2022-12-03T10:06:01.730Z,69.34
2022-12-03T10:08:34.480Z,69.23
2022-12-03T10:11:06.378Z,69.17
2022-12-03T10:13:39.152Z,69.93
2022-12-03T10:16:20.521Z,69.50
2022-12-03T10:18:58.553Z,68.87
2022-12-03T10:21:33.711Z,69.43
2022-12-03T10:24:20.636Z,69.17
2022-12-03T10:26:54.030Z,68.44
2022-12-03T10:29:33.600Z,68.95
2022-12-03T10:32:08.950Z,68.86
2022-12-03T10:34:42.956Z,69.28
2022-12-03T10:37:22.097Z,69.54
2022-12-03T10:40:02.499Z,69.32
2022-12-03T10:42:36.475Z,69.01
2022-12-03T10:45:19.510Z,69.21
2022-12-03T10:48:06.237Z,69.71
2022-12-03T10:50:39.392Z,69.03
2022-12-03T10:53:11.904Z,69.37
2022-12-03T10:55:46.200Z,69.10
2022-12-03T10:58:22.785Z,68.73
2022-12-03T11:00:56.895Z,68.59
2022-12-03T11:03:31.590Z,68.22
2022-12-03T11:06:04.529Z,68.16
2022-12-03T11:08:39.231Z,68.66
2022-12-03T11:11:20.218Z,68.56
2022-12-03T11:13:57.382Z,68.41
2022-12-03T11:16:44.395Z,68.36
2022-12-03T11:19:19.308Z,68.49
2022-12-03T11:22:12.102Z,68.35
2022-12-03T11:24:43.700Z,68.22
2022-12-03T11:27:15.104Z,68.48
2022-12-03T11:29:57.913Z,67.81
2022-12-03T11:32:41.915Z,67.39
2022-12-03T11:35:38.573Z,66.84
2022-12-03T11:38:50.720Z,66.59
2022-12-03T11:41:36.552Z,66.18
2022-12-03T11:44:30.197Z,66.12
2022-12-03T11:47:03.261Z,66.16
2022-12-03T11:49:39.754Z,66.11
2022-12-03T11:52:34.640Z,66.00
2022-12-03T11:55:36.277Z,65.93
2022-12-03T11:58:24.996Z,65.58
2022-12-03T12:00:59.717Z,65.46
2022-12-03T12:03:44.469Z,65.60
2022-12-03T12:06:22.178Z,65.44
2022-12-03T12:08:55.303Z,65.79
2022-12-03T12:11:38.499Z,65.97
2022-12-03T12:14:12.963Z,66.08
2022-12-03T12:16:56.617Z,65.94
2022-12-03T12:19:46.467Z,66.05
2022-12-03T12:22:22.673Z,65.97
2022-12-03T12:24:59.073Z,65.67
2022-12-03T12:27:55.226Z,66.02
2022-12-03T12:30:26.878Z,65.96
2022-12-03T12:33:25.365Z,66.25
2022-12-03T12:35:56.802Z,65.93
2022-12-03T12:38:30.062Z,66.03
2022-12-03T12:41:08.684Z,66.08
2022-12-03T12:43:41.323Z,65.86
2022-12-03T12:49:17.184Z,65.96
2022-12-03T12:51:50.950Z,65.78
2022-12-03T12:54:22.547Z,65.68
2022-12-03T12:56:54.629Z,65.63
2022-12-03T12:59:25.984Z,65.76
2022-12-03T13:01:57.929Z,65.65
2022-12-03T13:04:32.143Z,65.53
2022-12-03T13:07:03.885Z,65.72
2022-12-03T13:09:35.446Z,65.47
2022-12-03T13:12:09.009Z,65.68
2022-12-03T13:14:40.757Z,65.45
2022-12-03T13:17:26.119Z,65.20
2022-12-03T13:20:07.283Z,65.36
2022-12-03T13:22:39.456Z,65.40
2022-12-03T13:25:59.302Z,65.26
2022-12-03T13:28:32.396Z,65.26
2022-12-03T13:31:25.986Z,65.43
2022-12-03T13:33:59.107Z,65.02
2022-12-03T13:36:41.380Z,64.62
2022-12-03T13:39:23.375Z,64.80
2022-12-03T13:42:13.669Z,65.44
2022-12-03T13:44:50.833Z,66.32
2022-12-03T13:47:24.477Z,67.20
2022-12-03T13:50:14.284Z,68.04
2022-12-03T13:52:45.663Z,68.24
2022-12-03T13:55:29.363Z,68.17
2022-12-03T13:58:01.343Z,68.82
2022-12-03T14:00:33.871Z,68.87
2022-12-03T14:03:06.094Z,68.65
2022-12-03T14:05:37.852Z,68.65
2022-12-03T14:08:09.234Z,68.61
2022-12-03T14:10:40.606Z,68.31
2022-12-03T14:13:11.916Z,68.84
2022-12-03T14:15:43.314Z,69.38
2022-12-03T14:18:14.591Z,69.81
2022-12-03T14:20:46.200Z,69.76
2022-12-03T14:23:18.997Z,69.21
2022-12-03T14:25:50.419Z,69.60
2022-12-03T14:28:21.558Z,70.45
2022-12-03T14:30:52.761Z,68.08
2022-12-03T14:33:24.091Z,66.69
2022-12-03T14:35:57.528Z,65.57
2022-12-03T14:38:28.972Z,64.56
2022-12-03T14:41:00.276Z,63.96
2022-12-03T14:43:31.687Z,63.50
2022-12-03T14:46:03.553Z,62.69
2022-12-03T14:48:35.158Z,61.92
2022-12-03T14:51:06.642Z,62.07
2022-12-03T14:53:37.970Z,61.14
2022-12-03T14:56:09.235Z,60.28
2022-12-03T14:58:40.910Z,60.10
2022-12-03T15:01:12.383Z,59.41
2022-12-03T15:03:43.921Z,58.83
2022-12-03T15:06:15.243Z,58.17
2022-12-03T15:08:46.746Z,58.38
2022-12-03T15:11:18.271Z,57.59
2022-12-03T15:13:49.570Z,57.34
2022-12-03T15:16:21.293Z,56.38
2022-12-03T15:18:52.334Z,57.05
2022-12-03T15:21:23.903Z,55.72
2022-12-03T15:23:55.323Z,56.08
2022-12-03T15:26:26.814Z,55.42
2022-12-03T15:28:58.682Z,55.47
2022-12-03T15:31:30.901Z,54.58
2022-12-03T15:34:03.052Z,54.57
2022-12-03T15:36:34.632Z,54.19
2022-12-03T15:39:06.640Z,54.25
2022-12-03T15:41:38.386Z,54.19
2022-12-03T15:44:09.747Z,55.95
2022-12-03T15:46:41.138Z,56.52
2022-12-03T15:49:12.573Z,55.42
2022-12-03T15:51:43.873Z,55.51
2022-12-03T15:54:15.645Z,55.56
2022-12-03T15:56:46.904Z,55.57
2022-12-03T15:59:18.527Z,55.91
2022-12-03T16:01:50.324Z,55.50
2022-12-03T16:04:21.728Z,54.05
2022-12-03T16:06:53.214Z,54.55
2022-12-03T16:09:27.432Z,53.67
2022-12-03T16:11:59.031Z,53.79
2022-12-03T16:14:30.395Z,54.22
2022-12-03T16:17:01.748Z,53.66
2022-12-03T16:19:33.080Z,53.69
2022-12-03T16:22:05.250Z,53.85
2022-12-03T16:24:36.683Z,53.35
2022-12-03T16:27:08.400Z,53.78
2022-12-03T16:29:40.271Z,53.44
2022-12-03T16:32:11.630Z,53.35
2022-12-03T16:34:42.894Z,53.30
2022-12-03T16:37:14.361Z,52.59
2022-12-03T16:39:52.389Z,53.12
2022-12-03T16:42:25.636Z,53.23
2022-12-03T16:45:06.419Z,52.70
2022-12-03T16:47:38.967Z,52.92
2022-12-03T16:50:17.936Z,52.00
2022-12-03T16:52:52.313Z,52.56
2022-12-03T16:55:23.674Z,52.65
2022-12-03T16:57:55.032Z,52.06
2022-12-03T17:00:27.905Z,52.57
2022-12-03T17:02:59.334Z,50.99
2022-12-03T17:05:31.066Z,51.43
2022-12-03T17:08:02.269Z,50.51
2022-12-03T17:10:45.336Z,49.55
2022-12-03T17:13:17.340Z,51.36
2022-12-03T17:15:48.694Z,50.75
2022-12-03T17:18:20.160Z,50.98
2022-12-03T17:20:51.354Z,50.38
2022-12-03T17:23:22.699Z,50.51
2022-12-03T17:25:54.037Z,50.61
2022-12-03T17:28:25.880Z,50.45
2022-12-03T17:30:57.258Z,50.12
2022-12-03T17:33:29.214Z,50.60
2022-12-03T17:36:00.608Z,50.19
2022-12-03T17:38:37.337Z,49.89
2022-12-03T17:41:10.376Z,49.68
2022-12-03T17:43:41.642Z,49.62
2022-12-03T17:46:13.018Z,49.62
2022-12-03T17:48:44.333Z,48.73
2022-12-03T17:51:15.698Z,49.54
2022-12-03T17:53:47.371Z,49.43
2022-12-03T17:56:18.800Z,49.10
2022-12-03T17:58:50.050Z,49.68
2022-12-03T18:01:21.449Z,49.63
2022-12-03T18:03:52.739Z,49.63
2022-12-03T18:06:25.441Z,49.34
2022-12-03T18:08:56.796Z,48.47
2022-12-03T18:11:28.058Z,49.16
2022-12-03T18:14:00.093Z,48.83
2022-12-03T18:16:33.084Z,48.61
2022-12-03T18:19:06.378Z,48.56
2022-12-03T18:21:38.173Z,48.53
2022-12-03T18:24:10.003Z,48.18
2022-12-03T18:26:41.334Z,48.28
2022-12-03T18:29:12.642Z,48.62
2022-12-03T18:31:44.061Z,48.13
2022-12-03T18:34:15.406Z,48.63
2022-12-03T18:36:47.406Z,48.13
2022-12-03T18:39:35.462Z,46.85
2022-12-03T18:42:20.269Z,47.48
2022-12-03T18:44:53.281Z,47.91
2022-12-03T18:47:28.701Z,47.89
2022-12-03T18:50:00.136Z,47.89
2022-12-03T18:52:32.247Z,47.57
2022-12-03T18:55:03.745Z,47.96
2022-12-03T18:57:35.016Z,48.25
2022-12-03T19:00:13.488Z,46.98
2022-12-03T19:03:02.639Z,47.83
2022-12-03T19:05:36.779Z,47.80
2022-12-03T19:08:15.613Z,47.13
2022-12-03T19:10:56.589Z,47.39
2022-12-03T19:13:29.530Z,47.23
2022-12-03T19:16:04.930Z,46.47
2022-12-03T19:18:36.701Z,47.59
2022-12-03T19:21:10.409Z,47.27
2022-12-03T19:23:47.333Z,47.08
2022-12-03T19:26:30.610Z,47.06
2022-12-03T19:29:02.319Z,47.49
2022-12-03T19:31:35.254Z,47.37
2022-12-03T19:34:06.574Z,46.84
2022-12-03T19:36:38.471Z,46.54
2022-12-03T19:39:09.697Z,46.67
2022-12-03T19:41:43.270Z,46.33
2022-12-03T19:44:18.785Z,45.80
2022-12-03T19:46:52.308Z,46.40
2022-12-03T19:49:24.192Z,46.94
2022-12-03T19:51:55.593Z,46.86
2022-12-03T19:54:26.912Z,46.18
2022-12-03T19:56:58.189Z,46.60
2022-12-03T19:59:29.460Z,46.23
2022-12-03T20:02:00.945Z,46.67
2022-12-03T20:04:32.480Z,46.15
2022-12-03T20:07:04.209Z,46.48
2022-12-03T20:09:35.558Z,46.28
2022-12-03T20:12:06.996Z,46.24
2022-12-03T20:14:38.370Z,46.20
2022-12-03T20:17:10.330Z,46.24
2022-12-03T20:19:41.624Z,46.16
2022-12-03T20:22:12.827Z,45.89
2022-12-03T20:24:44.144Z,46.10
2022-12-03T20:27:19.617Z,46.01
2022-12-03T20:29:54.128Z,46.12
2022-12-03T20:32:26.370Z,46.17
2022-12-03T20:34:57.666Z,45.92
2022-12-03T20:37:28.935Z,45.92
2022-12-03T20:40:00.314Z,45.89
2022-12-03T20:42:31.585Z,45.49
2022-12-03T20:45:03.461Z,45.52
2022-12-03T20:47:34.805Z,45.85
2022-12-03T20:50:06.609Z,45.66
2022-12-03T20:52:37.729Z,45.55
2022-12-03T20:55:09.190Z,46.09
2022-12-03T20:57:40.456Z,45.84
2022-12-03T21:00:12.075Z,45.77
2022-12-03T21:02:43.629Z,45.85
2022-12-03T21:05:15.021Z,45.76
2022-12-03T21:07:46.577Z,45.36
2022-12-03T21:10:36.271Z,45.49
2022-12-03T21:13:08.110Z,45.34
2022-12-03T21:15:39.461Z,45.19
2022-12-03T21:18:13.187Z,45.40
2022-12-03T21:20:49.666Z,44.76
2022-12-03T21:23:21.031Z,45.88
2022-12-03T21:25:52.371Z,45.34
2022-12-03T21:28:24.165Z,45.74
2022-12-03T21:30:55.669Z,45.58
2022-12-03T21:33:26.969Z,45.58
2022-12-03T21:35:58.945Z,45.27
2022-12-03T21:38:31.457Z,45.35
2022-12-03T21:41:03.576Z,45.43
2022-12-03T21:43:35.589Z,45.08
2022-12-03T21:47:10.773Z,44.79
2022-12-03T21:49:03.353Z,45.20
2022-12-03T21:51:34.977Z,45.19
2022-12-03T21:54:06.359Z,45.37
2022-12-03T21:56:37.668Z,45.16
2022-12-03T21:59:08.925Z,45.51
2022-12-03T22:01:45.562Z,45.11
2022-12-03T22:04:18.472Z,45.29
2022-12-03T22:06:49.877Z,45.69
2022-12-03T22:09:26.284Z,45.46
2022-12-03T22:12:00.718Z,45.03
2022-12-03T22:14:32.967Z,45.13
2022-12-03T22:17:04.349Z,45.29
2022-12-03T22:19:35.881Z,44.48
2022-12-03T22:22:07.121Z,44.29
2022-12-03T22:24:38.378Z,44.50
2022-12-03T22:27:09.836Z,44.15
2022-12-03T22:29:41.146Z,43.99
2022-12-03T22:32:13.067Z,44.18
2022-12-03T22:34:44.861Z,43.92
2022-12-03T22:37:15.889Z,43.50
2022-12-03T22:39:47.100Z,43.24
2022-12-03T22:42:18.336Z,43.57
2022-12-03T22:44:49.675Z,43.02
2022-12-03T22:47:21.252Z,43.31
2022-12-03T22:49:52.789Z,43.30
2022-12-03T22:52:24.275Z,42.79
2022-12-03T22:54:55.720Z,43.60
2022-12-03T22:57:27.040Z,42.88
2022-12-03T22:59:58.329Z,43.15
2022-12-03T23:02:29.707Z,42.26
2022-12-03T23:05:01.266Z,43.28
2022-12-03T23:07:32.617Z,43.66
2022-12-03T23:10:04.628Z,44.26
2022-12-03T23:12:35.919Z,45.15
2022-12-03T23:15:08.823Z,45.46
2022-12-03T23:17:40.101Z,45.63
2022-12-03T23:20:12.144Z,46.11
2022-12-03T23:22:43.509Z,46.46
2022-12-03T23:25:14.984Z,46.38
2022-12-03T23:27:47.264Z,46.68
2022-12-03T23:30:19.341Z,46.75
2022-12-03T23:32:50.656Z,47.60
2022-12-03T23:35:21.991Z,47.44
2022-12-03T23:37:53.210Z,47.73
2022-12-03T23:40:24.696Z,48.48
2022-12-03T23:42:55.942Z,48.52
2022-12-03T23:45:27.804Z,48.68
2022-12-03T23:47:58.979Z,50.05
2022-12-03T23:50:30.972Z,51.46
2022-12-03T23:53:02.259Z,53.58
2022-12-03T23:55:33.665Z,57.45
2022-12-03T23:58:05.344Z,58.73
